Time;durP1;ratioP1;P1;durP2;ratioP2;P2;SDS_P1;SDS_P2;PMS_P1;PMS_P2;Temp;Humidity;BMP_temperature;BMP_pressure;BME280_temperature;BME280_humidity;BME280_pressure;Samples;Min_cycle;Max_cycle;Signal;HPM_P1;HPM_P2
2022/11/13 00:00:22;;;;;;;1999.90;999.90;;;11.80;99.90;;;;;;4998527;28;20507;-82
2022/11/13 00:02:47;;;;;;;1999.90;999.90;;;11.80;99.90;;;;;;5016393;28;20071;-82
2022/11/13 00:05:13;;;;;;;1999.90;999.90;;;11.80;99.90;;;;;;4998855;28;20037;-82
2022/11/13 00:07:38;;;;;;;1999.90;999.90;;;11.80;99.90;;;;;;5015971;28;20129;-82
2022/11/13 00:10:04;;;;;;;1999.90;999.90;;;11.70;99.90;;;;;;5016061;28;20065;-83
2022/11/13 00:12:30;;;;;;;1999.90;999.90;;;11.70;99.90;;;;;;5015607;28;20532;-83
2022/11/13 00:14:56;;;;;;;1999.90;999.90;;;11.60;99.90;;;;;;5015608;28;20057;-82
2022/11/13 00:17:21;;;;;;;1999.90;999.90;;;11.60;99.90;;;;;;5026460;28;20036;-83
2022/11/13 00:19:47;;;;;;;1999.90;999.90;;;11.60;99.90;;;;;;5017910;28;20033;-83
2022/11/13 00:22:12;;;;;;;1999.90;999.90;;;11.60;99.90;;;;;;5026683;28;20038;-83
2022/11/13 00:24:38;;;;;;;1999.90;999.90;;;11.60;99.90;;;;;;5015723;28;20026;-82
2022/11/13 00:27:03;;;;;;;1999.90;999.90;;;11.60;99.90;;;;;;5015888;28;20038;-82
2022/11/13 00:29:29;;;;;;;1999.90;999.90;;;11.60;99.90;;;;;;4998135;28;20021;-82
2022/11/13 00:31:55;;;;;;;1999.90;999.90;;;11.60;99.90;;;;;;5015728;28;20439;-82
2022/11/13 00:34:20;;;;;;;1999.90;999.90;;;11.60;99.90;;;;;;4997786;28;20025;-82
2022/11/13 00:36:46;;;;;;;1999.90;999.90;;;11.60;99.90;;;;;;4998162;28;20029;-82
2022/11/13 00:39:11;;;;;;;1999.90;999.90;;;11.70;99.90;;;;;;5015357;28;20026;-82
2022/11/13 00:41:37;;;;;;;1999.90;999.90;;;11.70;99.90;;;;;;5015591;28;20383;-82
2022/11/13 00:44:03;;;;;;;1999.90;999.90;;;11.70;99.90;;;;;;5015305;28;20091;-82
2022/11/13 00:46:29;;;;;;;1999.90;999.90;;;11.70;99.90;;;;;;5014610;28;20033;-83
2022/11/13 00:48:55;;;;;;;1999.90;999.90;;;11.70;99.90;;;;;;5014953;28;20054;-83
2022/11/13 00:51:20;;;;;;;1999.90;999.90;;;11.70;99.90;;;;;;5015596;28;20109;-83
2022/11/13 00:53:46;;;;;;;1999.90;999.90;;;11.60;99.90;;;;;;5014926;28;20396;-82
2022/11/13 00:56:12;;;;;;;1999.90;999.90;;;11.60;99.90;;;;;;5015620;28;20057;-82
2022/11/13 00:58:37;;;;;;;1999.90;999.90;;;11.60;99.90;;;;;;5014935;28;20034;-82
2022/11/13 01:01:08;;;;;;;1999.90;999.90;;;11.60;99.90;;;;;;5021721;28;20370;-82
2022/11/13 01:03:34;;;;;;;1999.90;999.90;;;11.60;99.90;;;;;;5034995;28;20401;-82
2022/11/13 01:06:00;;;;;;;1999.90;999.90;;;11.60;99.90;;;;;;5034775;28;20030;-82
2022/11/13 01:08:25;;;;;;;1999.90;999.90;;;11.60;99.90;;;;;;5016955;28;20028;-82
2022/11/13 01:10:51;;;;;;;1999.90;999.90;;;11.70;99.90;;;;;;5034824;28;20026;-82
2022/11/13 01:13:17;;;;;;;1999.90;999.90;;;11.70;99.90;;;;;;5034759;28;20079;-82
2022/11/13 01:15:43;;;;;;;1999.90;999.90;;;11.70;99.90;;;;;;5034249;28;20076;-82
2022/11/13 01:18:10;;;;;;;1999.90;999.90;;;11.70;99.90;;;;;;5034252;28;20029;-82
2022/11/13 01:20:36;;;;;;;1999.90;999.90;;;11.70;99.90;;;;;;5034559;28;20115;-82
2022/11/13 01:23:02;;;;;;;1999.90;999.90;;;11.70;99.90;;;;;;5004187;28;20077;-82
2022/11/13 01:25:29;;;;;;;1999.90;999.90;;;11.70;99.90;;;;;;4995148;28;20030;-82
2022/11/13 01:27:55;;;;;;;1999.90;999.90;;;11.70;99.90;;;;;;4994984;28;20026;-82
2022/11/13 01:30:20;;;;;;;1999.90;999.90;;;11.70;99.90;;;;;;4994986;28;20049;-83
2022/11/13 01:32:46;;;;;;;1999.90;999.90;;;11.70;99.90;;;;;;4994878;28;20030;-82
2022/11/13 01:35:12;;;;;;;1999.90;999.90;;;11.70;99.90;;;;;;4978010;28;20121;-82
2022/11/13 01:37:37;;;;;;;1999.90;999.90;;;11.70;99.90;;;;;;4994799;28;20393;-82
2022/11/13 01:40:03;;;;;;;1999.90;999.90;;;11.70;99.90;;;;;;4994988;28;20033;-82
2022/11/13 01:42:32;;;;;;;1999.90;999.90;;;11.70;99.90;;;;;;4994800;28;20030;-82
2022/11/13 01:44:59;;;;;;;1999.90;999.90;;;11.60;99.90;;;;;;5007782;28;20381;-82
2022/11/13 01:47:25;;;;;;;1999.90;999.90;;;11.60;99.90;;;;;;4996147;28;20042;-82
2022/11/13 01:49:55;;;;;;;1999.90;999.90;;;11.50;99.90;;;;;;5014184;28;20585;-82
2022/11/13 01:52:23;;;;;;;1999.90;999.90;;;11.50;99.90;;;;;;5014211;28;20034;-82
2022/11/13 01:54:56;;;;;;;1999.90;999.90;;;11.40;99.90;;;;;;5014452;28;20501;-82
2022/11/13 01:57:23;;;;;;;;;;;11.40;99.90;;;;;;5014697;28;20053;-83
2022/11/13 02:00:03;;;;;;;1999.90;999.90;;;11.30;99.90;;;;;;5014316;28;19906;-82
2022/11/13 02:02:29;;;;;;;1999.90;999.90;;;11.30;99.90;;;;;;5013907;28;20038;-82
2022/11/13 02:04:55;;;;;;;1999.90;999.90;;;11.20;99.90;;;;;;4996503;28;20503;-82
2022/11/13 02:07:22;;;;;;;1999.90;999.90;;;11.20;99.90;;;;;;5014042;28;20025;-82
2022/11/13 02:09:51;;;;;;;1999.90;999.90;;;11.20;99.90;;;;;;5013961;28;20025;-82
2022/11/13 02:12:40;;;;;;;1999.90;999.90;;;11.20;99.90;;;;;;5012908;28;20053;-82
2022/11/13 02:15:07;;;;;;;1999.90;999.90;;;11.20;99.90;;;;;;5013670;28;20164;-83
2022/11/13 02:17:38;;;;;;;1999.90;999.90;;;11.20;99.90;;;;;;5013527;28;20084;-82
2022/11/13 02:20:05;;;;;;;1999.90;999.90;;;11.30;99.90;;;;;;5013637;28;20400;-83
2022/11/13 02:23:05;;;;;;;1999.90;999.90;;;11.30;99.90;;;;;;5002389;28;20022;-83
2022/11/13 02:25:32;;;;;;;1999.90;999.90;;;11.30;99.90;;;;;;4963703;28;20383;-82
2022/11/13 02:27:57;;;;;;;1999.90;999.90;;;11.40;99.90;;;;;;4993979;28;20490;-82
2022/11/13 02:30:30;;;;;;;1999.90;999.90;;;11.40;99.90;;;;;;4993820;28;20061;-83
2022/11/13 02:32:57;;;;;;;1999.90;999.90;;;11.40;99.90;;;;;;4993724;28;20436;-83
2022/11/13 02:35:30;;;;;;;1999.90;999.90;;;11.30;99.90;;;;;;4994037;28;20258;-83
2022/11/13 02:37:59;;;;;;;1999.90;999.90;;;11.30;99.90;;;;;;4993113;28;20405;-82
2022/11/13 02:40:25;;;;;;;1999.90;999.90;;;11.20;99.90;;;;;;4993392;28;20061;-82
2022/11/13 02:42:51;;;;;;;1999.90;999.90;;;11.30;99.90;;;;;;4993685;28;20399;-83
2022/11/13 02:45:17;;;;;;;1999.90;999.90;;;11.20;99.90;;;;;;5009127;28;20033;-83
2022/11/13 02:47:42;;;;;;;1999.90;999.90;;;11.20;99.90;;;;;;4995559;28;20105;-82
2022/11/13 02:50:09;;;;;;;1999.90;999.90;;;11.20;99.90;;;;;;5012326;28;20626;-82
2022/11/13 02:52:35;;;;;;;1999.90;999.90;;;11.20;99.90;;;;;;5013109;28;20485;-82
2022/11/13 02:55:00;;;;;;;1999.90;999.90;;;11.20;99.90;;;;;;5013139;28;20060;-82
2022/11/13 02:57:26;;;;;;;1999.90;999.90;;;11.20;99.90;;;;;;5013261;28;20034;-82
2022/11/13 02:59:52;;;;;;;1999.90;999.90;;;11.10;99.90;;;;;;5013286;28;20129;-82
2022/11/13 03:02:17;;;;;;;1999.90;999.90;;;11.10;99.90;;;;;;5029816;28;20075;-83
2022/11/13 03:04:45;;;;;;;1999.90;999.90;;;11.20;99.90;;;;;;5032936;28;20056;-82
2022/11/13 03:07:12;;;;;;;1999.90;999.90;;;11.10;99.90;;;;;;5032464;28;20029;-82
2022/11/13 03:09:38;;;;;;;1999.90;999.90;;;11.10;99.90;;;;;;5032751;28;20028;-82
2022/11/13 03:12:04;;;;;;;1999.90;999.90;;;11.10;99.90;;;;;;5014692;28;20426;-82
2022/11/13 03:14:30;;;;;;;1999.90;999.90;;;11.10;99.90;;;;;;5032745;28;20044;-82
2022/11/13 03:16:55;;;;;;;1999.90;999.90;;;11.10;99.90;;;;;;5032419;28;20033;-82
2022/11/13 03:19:21;;;;;;;1999.90;999.90;;;11.10;99.90;;;;;;5032791;28;20029;-82
2022/11/13 03:21:47;;;;;;;1999.90;999.90;;;11.10;99.90;;;;;;5022387;28;20033;-82
2022/11/13 03:24:12;;;;;;;1999.90;999.90;;;11.10;99.90;;;;;;4991848;28;20041;-82
2022/11/13 03:26:38;;;;;;;1999.90;999.90;;;11.10;99.90;;;;;;4992904;28;20066;-82
2022/11/13 03:29:03;;;;;;;1999.90;999.90;;;11.10;99.90;;;;;;4993531;28;20096;-82
2022/11/13 03:31:29;;;;;;;1999.90;999.90;;;11.10;99.90;;;;;;4993153;28;20034;-82
2022/11/13 03:33:55;;;;;;;1999.90;999.90;;;11.10;99.90;;;;;;4975314;28;20034;-82
2022/11/13 03:36:20;;;;;;;1999.90;999.90;;;11.10;99.90;;;;;;4992861;28;20046;-82
2022/11/13 03:38:46;;;;;;;1999.90;999.90;;;11.20;99.90;;;;;;4977229;28;20049;-82
2022/11/13 03:41:14;;;;;;;1999.90;999.90;;;11.20;99.90;;;;;;5012717;28;20224;-82
2022/11/13 03:43:41;;;;;;;1999.90;999.90;;;11.20;99.90;;;;;;5012539;28;20152;-82
2022/11/13 03:46:07;;;;;;;1999.90;999.90;;;11.30;99.90;;;;;;5012142;28;20033;-82
2022/11/13 03:48:33;;;;;;;1999.90;999.90;;;11.40;99.90;;;;;;5011977;28;20026;-83
2022/11/13 03:50:59;;;;;;;1999.90;999.90;;;11.40;99.90;;;;;;4994171;28;20119;-82
2022/11/13 03:53:25;;;;;;;1999.90;999.90;;;11.50;99.90;;;;;;5012334;28;20294;-82
2022/11/13 03:55:51;;;;;;;1999.90;999.90;;;11.50;99.90;;;;;;5012271;28;20046;-82
2022/11/13 03:58:18;;;;;;;1999.90;999.90;;;11.50;99.90;;;;;;5012437;28;20041;-82
2022/11/13 04:00:44;;;;;;;1999.90;999.90;;;11.50;99.90;;;;;;5011991;28;20033;-82
2022/11/13 04:03:10;;;;;;;1999.90;999.90;;;11.50;99.90;;;;;;5012392;28;20037;-82
2022/11/13 04:05:36;;;;;;;1999.90;999.90;;;11.50;99.90;;;;;;5012330;28;20026;-82
2022/11/13 04:08:02;;;;;;;1999.90;999.90;;;11.50;99.90;;;;;;5012202;28;20026;-82
2022/11/13 04:10:28;;;;;;;1999.90;999.90;;;11.60;99.90;;;;;;5012284;28;20509;-82
2022/11/13 04:12:54;;;;;;;1999.90;999.90;;;11.60;99.90;;;;;;5012229;28;20052;-82
2022/11/13 04:15:20;;;;;;;1999.90;999.90;;;11.60;99.90;;;;;;5012693;28;20100;-82
2022/11/13 04:17:46;;;;;;;1999.90;999.90;;;11.50;99.90;;;;;;5011120;28;20432;-82
2022/11/13 04:20:12;;;;;;;1999.90;999.90;;;11.40;99.90;;;;;;5011970;28;20101;-83
2022/11/13 04:22:38;;;;;;;1999.90;999.90;;;11.40;99.90;;;;;;5011265;28;20065;-82
2022/11/13 04:25:05;;;;;;;1999.90;999.90;;;11.30;99.90;;;;;;5012000;28;20547;-82
2022/11/13 04:27:31;;;;;;;1999.90;999.90;;;11.20;99.90;;;;;;5012380;28;20065;-83
2022/11/13 04:29:56;;;;;;;1999.90;999.90;;;11.20;99.90;;;;;;5011881;28;20072;-83
2022/11/13 04:32:22;;;;;;;1999.90;999.90;;;11.20;99.90;;;;;;5011859;28;20108;-83
2022/11/13 04:34:48;;;;;;;1999.90;999.90;;;11.10;99.90;;;;;;5012084;28;20026;-82
2022/11/13 04:37:13;;;;;;;1999.90;999.90;;;11.20;99.90;;;;;;5014650;28;20457;-82
2022/11/13 04:39:39;;;;;;;1999.90;999.90;;;11.10;99.90;;;;;;5015943;28;20497;-82
2022/11/13 04:44:48;;;;;;;1999.90;999.90;;;11.00;99.90;;;;;;5015588;28;20627;-82
2022/11/13 04:47:14;;;;;;;1999.90;999.90;;;11.00;99.90;;;;;;5015752;28;20120;-82
2022/11/13 04:49:40;;;;;;;1999.90;999.90;;;11.00;99.90;;;;;;5015154;28;20374;-82
2022/11/13 04:52:06;;;;;;;1999.90;999.90;;;11.00;99.90;;;;;;5013705;28;20049;-82
2022/11/13 04:54:31;;;;;;;1999.90;999.90;;;11.10;99.90;;;;;;5015571;28;20056;-83
2022/11/13 04:56:57;;;;;;;1999.90;999.90;;;11.00;99.90;;;;;;5015412;28;20034;-82
2022/11/13 04:59:23;;;;;;;1999.90;999.90;;;11.00;99.90;;;;;;5012468;28;20026;-82
2022/11/13 05:01:49;;;;;;;1999.90;999.90;;;11.10;99.90;;;;;;5008536;28;20022;-82
2022/11/13 05:04:15;;;;;;;1999.90;999.90;;;11.00;99.90;;;;;;5014613;28;20080;-82
2022/11/13 05:06:41;;;;;;;1999.90;999.90;;;11.00;99.90;;;;;;5014322;28;20026;-82
2022/11/13 05:09:07;;;;;;;1999.90;999.90;;;11.00;99.90;;;;;;5015013;28;20033;-82
2022/11/13 05:11:32;;;;;;;1999.90;999.90;;;11.00;99.90;;;;;;5015012;28;20400;-82
2022/11/13 05:13:58;;;;;;;1999.90;999.90;;;11.10;99.90;;;;;;4997328;28;20025;-82
2022/11/13 05:16:23;;;;;;;1999.90;999.90;;;11.00;99.90;;;;;;5014448;28;20029;-82
2022/11/13 05:18:49;;;;;;;1999.90;999.90;;;11.00;99.90;;;;;;5015081;28;20540;-82
2022/11/13 05:21:15;;;;;;;1999.90;999.90;;;11.10;99.90;;;;;;5014942;28;20029;-82
2022/11/13 05:23:41;;;;;;;1999.90;999.90;;;11.10;99.90;;;;;;5014635;28;20026;-82
2022/11/13 05:26:12;;;;;;;1999.90;999.90;;;11.10;99.90;;;;;;5014443;28;20103;-82
2022/11/13 05:28:38;;;;;;;1999.90;999.90;;;11.00;99.90;;;;;;4997016;28;20030;-82
2022/11/13 05:31:08;;;;;;;1999.90;999.90;;;10.90;99.90;;;;;;5014657;28;20076;-82
2022/11/13 05:33:35;;;;;;;1999.90;999.90;;;10.90;99.90;;;;;;5014797;28;20540;-82
2022/11/13 05:36:06;;;;;;;1999.90;999.90;;;10.90;99.90;;;;;;5014525;28;20037;-82
2022/11/13 05:38:33;;;;;;;1999.90;999.90;;;10.80;99.90;;;;;;5014449;28;20504;-82
2022/11/13 05:41:06;;;;;;;1999.90;999.90;;;10.70;99.90;;;;;;5014482;28;20117;-82
2022/11/13 05:43:33;;;;;;;1999.90;999.90;;;10.80;99.90;;;;;;5014957;28;20022;-82
2022/11/13 05:46:20;;;;;;;1999.90;999.90;;;10.80;99.90;;;;;;5014155;28;20461;-82
2022/11/13 05:48:46;;;;;;;1999.90;999.90;;;10.80;99.90;;;;;;5013432;28;20045;-82
2022/11/13 05:51:21;;;;;;;1999.90;999.90;;;10.70;99.90;;;;;;5013923;28;20030;-82
2022/11/13 05:53:47;;;;;;;1999.90;999.90;;;10.70;99.90;;;;;;5014028;28;20117;-82
2022/11/13 05:56:16;;;;;;;1999.90;999.90;;;10.70;99.90;;;;;;5014641;28;20382;-82
2022/11/13 05:58:42;;;;;;;1999.90;999.90;;;10.60;99.90;;;;;;5014049;28;20375;-82
2022/11/13 06:01:18;;;;;;;1999.90;999.90;;;10.60;99.90;;;;;;5013857;28;20507;-82
2022/11/13 06:03:45;;;;;;;1999.90;999.90;;;10.50;99.90;;;;;;5013837;28;20220;-82
2022/11/13 06:06:15;;;;;;;1999.90;999.90;;;10.50;99.90;;;;;;5013910;28;20030;-82
2022/11/13 06:08:42;;;;;;;1999.90;999.90;;;10.50;99.90;;;;;;5013673;28;20125;-82
2022/11/13 06:11:11;;;;;;;1999.90;999.90;;;10.50;99.90;;;;;;5014071;28;20022;-82
2022/11/13 06:13:37;;;;;;;1999.90;999.90;;;10.40;99.90;;;;;;5014102;28;20029;-82
2022/11/13 06:16:09;;;;;;;1999.90;999.90;;;10.50;99.90;;;;;;5013567;28;20386;-82
2022/11/13 06:18:35;;;;;;;1999.90;999.90;;;10.50;99.90;;;;;;5013975;28;20525;-82
2022/11/13 06:21:10;;;;;;;1999.90;999.90;;;10.60;99.90;;;;;;5013935;28;20021;-82
2022/11/13 06:23:37;;;;;;;1999.90;999.90;;;10.70;99.90;;;;;;5013587;28;20076;-82
2022/11/13 06:26:15;;;;;;;1999.90;999.90;;;10.80;99.90;;;;;;5013264;28;20041;-82
2022/11/13 06:28:40;;;;;;;1999.90;999.90;;;10.80;99.90;;;;;;5013759;28;20032;-82
2022/11/13 06:31:11;;;;;;;1999.90;999.90;;;10.80;99.90;;;;;;5013773;28;20109;-82
2022/11/13 06:33:38;;;;;;;1999.90;999.90;;;10.80;99.90;;;;;;5013693;28;20022;-82
2022/11/13 06:36:06;;;;;;;1999.90;999.90;;;10.80;99.90;;;;;;5013429;28;20055;-82
2022/11/13 06:38:36;;;;;;;1999.90;999.90;;;10.70;99.90;;;;;;5001342;28;20026;-82
2022/11/13 06:41:03;;;;;;;1999.90;999.90;;;10.70;99.90;;;;;;4993879;28;20034;-82
2022/11/13 06:43:29;;;;;;;1999.90;999.90;;;10.60;99.90;;;;;;4994776;28;20023;-82
2022/11/13 06:45:56;;;;;;;1999.90;999.90;;;10.60;99.90;;;;;;5013136;28;20109;-82
2022/11/13 06:48:22;;;;;;;1999.90;999.90;;;10.60;99.90;;;;;;5013227;28;20045;-82
2022/11/13 06:50:48;;;;;;;1999.90;999.90;;;10.50;99.90;;;;;;5013514;28;20473;-83
2022/11/13 06:53:14;;;;;;;1999.90;999.90;;;10.50;99.90;;;;;;5012384;28;20026;-82
2022/11/13 06:55:47;;;;;;;1999.90;999.90;;;10.50;99.90;;;;;;5013142;28;20053;-82
2022/11/13 06:58:14;;;;;;;1999.90;999.90;;;10.50;99.90;;;;;;5012876;28;20038;-82
2022/11/13 07:00:40;;;;;;;1999.90;999.90;;;10.50;99.90;;;;;;5016232;28;20099;-82
2022/11/13 07:03:15;;;;;;;1999.90;999.90;;;10.50;99.90;;;;;;5014904;28;20037;-82
2022/11/13 07:05:41;;;;;;;1999.90;999.90;;;10.50;99.90;;;;;;5032538;28;20113;-82
2022/11/13 07:08:06;;;;;;;1999.90;999.90;;;10.50;99.90;;;;;;5032366;28;20105;-83
2022/11/13 07:10:32;;;;;;;1999.90;999.90;;;10.60;99.90;;;;;;5032435;28;20408;-83
2022/11/13 07:12:59;;;;;;;1999.90;999.90;;;10.70;99.90;;;;;;5032694;28;20025;-82
2022/11/13 07:15:25;;;;;;;1999.90;999.90;;;10.70;99.90;;;;;;5014310;28;20029;-82
2022/11/13 07:17:50;;;;;;;1999.90;999.90;;;10.80;99.90;;;;;;5032031;28;20393;-82
2022/11/13 07:20:16;;;;;;;1999.90;999.90;;;10.80;99.90;;;;;;5032390;28;20025;-82
2022/11/13 07:22:42;;;;;;;1999.90;999.90;;;10.80;99.90;;;;;;5032316;28;20036;-82
2022/11/13 07:25:07;;;;;;;1999.90;999.90;;;10.80;99.90;;;;;;5014572;28;20103;-82
2022/11/13 07:27:33;;;;;;;1999.90;999.90;;;10.80;99.90;;;;;;5032546;28;20033;-82
2022/11/13 07:29:59;;;;;;;1999.90;999.90;;;10.70;99.90;;;;;;5032657;28;20049;-82
2022/11/13 07:32:24;;;;;;;1999.90;999.90;;;10.70;99.90;;;;;;5032498;28;20080;-82
2022/11/13 07:34:50;;;;;;;1999.90;999.90;;;10.70;99.90;;;;;;5032359;28;20105;-82
2022/11/13 07:37:15;;;;;;;1999.90;999.90;;;10.80;99.90;;;;;;5030111;28;20061;-82
2022/11/13 07:39:41;;;;;;;1999.90;999.90;;;10.90;99.90;;;;;;4992808;28;20400;-82
2022/11/13 07:42:07;;;;;;;1999.90;999.90;;;10.90;99.90;;;;;;4993298;28;20036;-82
2022/11/13 07:44:32;;;;;;;1999.90;999.90;;;11.00;99.90;;;;;;5002359;28;20540;-82
2022/11/13 07:46:58;;;;;;;1999.90;999.90;;;11.10;99.90;;;;;;4994777;28;20087;-82
2022/11/13 07:49:23;;;;;;;1999.90;999.90;;;11.10;99.90;;;;;;5012961;28;20033;-82
2022/11/13 07:51:49;;;;;;;1999.90;999.90;;;11.20;99.90;;;;;;4995012;28;20025;-82
2022/11/13 07:54:15;;;;;;;1999.90;999.90;;;11.20;99.90;;;;;;5011424;28;20475;-82
2022/11/13 07:56:40;;;;;;;1999.90;999.90;;;11.20;99.90;;;;;;5012459;28;20022;-82
2022/11/13 07:59:06;;;;;;;1999.90;999.90;;;11.30;99.90;;;;;;4995165;28;20075;-82
2022/11/13 08:01:32;;;;;;;1999.90;999.90;;;11.40;99.90;;;;;;5023059;28;20025;-83
2022/11/13 08:03:57;;;;;;;1999.90;999.90;;;11.40;99.90;;;;;;5032156;28;20524;-83
2022/11/13 08:06:26;;;;;;;1999.90;999.90;;;11.50;99.90;;;;;;5031893;28;20041;-83
2022/11/13 08:08:52;;;;;;;1999.90;999.90;;;11.60;99.90;;;;;;5031854;28;20028;-82
2022/11/13 08:11:17;;;;;;;1999.90;999.90;;;11.70;99.90;;;;;;5033988;28;20022;-82
2022/11/13 08:13:43;;;;;;;1999.90;999.90;;;11.80;99.90;;;;;;5035999;28;20029;-82
2022/11/13 08:16:08;;;;;;;1999.90;999.90;;;12.00;99.90;;;;;;5035630;28;20033;-82
2022/11/13 08:18:34;;;;;;;1999.90;999.90;;;12.50;99.90;;;;;;5035964;28;20037;-82
2022/11/13 08:21:02;;;;;;;1999.90;999.90;;;12.50;99.90;;;;;;5035747;28;20079;-82
2022/11/13 08:23:27;;;;;;;1999.90;999.90;;;12.50;99.90;;;;;;5035575;28;20031;-82
2022/11/13 08:25:53;;;;;;;1999.90;999.90;;;12.50;99.90;;;;;;5016528;28;20124;-82
2022/11/13 08:28:19;;;;;;;1999.90;999.90;;;12.50;99.90;;;;;;4998091;28;20045;-82
2022/11/13 08:30:44;;;;;;;1999.90;999.90;;;12.50;99.90;;;;;;5015603;28;20021;-82
2022/11/13 08:33:10;;;;;;;1999.90;999.90;;;12.60;99.90;;;;;;5015745;28;20026;-82
2022/11/13 08:35:36;;;;;;;1999.90;999.90;;;12.60;99.90;;;;;;5015789;28;20022;-82
2022/11/13 08:38:03;;;;;;;1999.90;999.90;;;12.70;99.90;;;;;;5015088;28;20393;-82
2022/11/13 08:40:29;;;;;;;1999.90;999.90;;;12.80;99.90;;;;;;5015719;28;20469;-82
2022/11/13 08:43:02;;;;;;;1999.90;999.90;;;12.90;99.90;;;;;;5015588;28;20041;-82
2022/11/13 08:45:29;;;;;;;1999.90;999.90;;;12.90;99.90;;;;;;5015926;28;20469;-82
2022/11/13 08:48:02;;;;;;;1999.90;999.90;;;13.00;99.90;;;;;;5015674;28;20508;-82
2022/11/13 08:50:28;;;;;;;1999.90;999.90;;;13.10;99.90;;;;;;5015468;28;20041;-82
2022/11/13 08:52:55;;;;;;;1999.90;999.90;;;13.10;99.90;;;;;;5014768;28;20034;-82
2022/11/13 08:55:22;;;;;;;1999.90;999.90;;;13.20;99.90;;;;;;4994453;28;20078;-82
2022/11/13 08:57:48;;;;;;;1999.90;999.90;;;13.20;99.90;;;;;;4995725;28;20077;-83
2022/11/13 09:00:14;;;;;;;1999.90;999.90;;;13.30;99.90;;;;;;4994453;28;20039;-82
2022/11/13 09:02:39;;;;;;;1999.90;999.90;;;13.30;99.90;;;;;;4976481;28;20076;-83
2022/11/13 09:05:05;;;;;;;1999.90;999.90;;;13.40;99.90;;;;;;4976370;28;20023;-83
2022/11/13 09:07:34;;;;;;;1999.90;999.90;;;13.40;99.90;;;;;;4976182;28;20067;-82
2022/11/13 09:10:00;;;;;;;1999.90;999.90;;;13.50;99.90;;;;;;4975977;28;20102;-82
2022/11/13 09:12:25;;;;;;;1999.90;999.90;;;13.60;99.90;;;;;;4976039;28;20058;-82
2022/11/13 09:14:51;;;;;;;1999.90;999.90;;;13.70;99.90;;;;;;4975827;28;20035;-82
2022/11/13 09:17:17;;;;;;;1999.90;999.90;;;13.80;99.90;;;;;;4968506;28;20035;-83
2022/11/13 09:19:43;;;;;;;1999.90;999.90;;;13.90;99.90;;;;;;4976147;28;20019;-83
2022/11/13 09:22:09;;;;;;;1999.90;999.90;;;14.00;99.90;;;;;;4974287;28;20046;-82
2022/11/13 09:24:35;;;;;;;1999.90;999.90;;;14.00;99.90;;;;;;4975525;28;20027;-83
2022/11/13 09:27:01;;;;;;;1999.90;999.90;;;14.10;99.90;;;;;;4975791;28;20038;-82
2022/11/13 09:29:27;;;;;;;1999.90;999.90;;;14.10;99.90;;;;;;4976073;28;20490;-83
2022/11/13 09:31:54;;;;;;;1999.90;999.90;;;14.10;99.90;;;;;;4976004;28;20031;-83
2022/11/13 09:34:20;;;;;;;1999.90;999.90;;;14.10;99.90;;;;;;4975554;28;20054;-83
2022/11/13 09:36:46;;;;;;;1999.90;999.90;;;14.20;99.90;;;;;;4975585;28;20022;-83
2022/11/13 09:39:11;;;;;;;1999.90;999.90;;;14.30;99.90;;;;;;4975599;28;20031;-83
2022/11/13 09:42:05;;;;;;;1999.90;999.90;;;14.30;99.90;;;;;;4975762;28;20035;-83
2022/11/13 09:44:37;;;;;;;;;;;14.40;99.90;;;;;;4968786;28;20041;-83
2022/11/13 09:47:17;;;;;;;1999.90;999.90;;;14.50;99.90;;;;;;4994822;28;19913;-83
2022/11/13 09:50:12;;;;;;;1999.90;999.90;;;14.60;99.90;;;;;;4995191;28;20110;-83
2022/11/13 09:52:42;;;;;;;1999.90;999.90;;;14.70;99.90;;;;;;4994676;28;20033;-83
2022/11/13 09:55:12;;;;;;;1999.90;999.90;;;14.80;99.90;;;;;;5007968;28;20092;-82
2022/11/13 09:58:05;;;;;;;1999.90;999.90;;;14.80;99.90;;;;;;4996994;28;20029;-83
2022/11/13 10:00:33;;;;;;;1999.90;999.90;;;14.90;99.90;;;;;;5016379;28;20026;-83
2022/11/13 10:03:31;;;;;;;1999.90;999.90;;;14.90;99.90;;;;;;5034183;28;20033;-83
2022/11/13 10:06:21;;;;;;;1999.90;999.90;;;15.10;99.90;;;;;;5006922;28;20088;-83
2022/11/13 10:09:11;;;;;;;1999.90;999.90;;;15.10;99.90;;;;;;5015640;28;20029;-83
2022/11/13 10:11:43;;;;;;;1999.90;999.90;;;15.10;99.90;;;;;;5033900;28;20550;-83
2022/11/13 10:14:15;;;;;;;1999.90;999.90;;;15.20;99.90;;;;;;5033980;28;20053;-83
2022/11/13 10:16:53;;;;;;;1999.90;999.90;;;15.40;99.90;;;;;;5016408;28;20072;-83
2022/11/13 10:19:23;;;;;;;1999.90;999.90;;;15.50;99.90;;;;;;5013789;28;20029;-83
2022/11/13 10:22:09;;;;;;;1999.90;999.90;;;15.60;99.90;;;;;;4996315;28;20060;-83
2022/11/13 10:24:41;;;;;;;1999.90;999.90;;;15.60;99.90;;;;;;5002811;28;20118;-83
2022/11/13 10:27:12;;;;;;;1999.90;999.90;;;15.60;99.90;;;;;;5013788;28;20492;-83
2022/11/13 10:29:39;;;;;;;1999.90;999.90;;;15.70;99.90;;;;;;5013775;28;20440;-83
2022/11/13 10:32:23;;;;;;;1999.90;999.90;;;15.80;99.90;;;;;;5013612;28;20026;-83
2022/11/13 10:35:04;;;;;;;1999.90;999.90;;;15.90;99.90;;;;;;4995505;28;20113;-83
2022/11/13 10:37:43;;;;;;;1999.90;999.90;;;16.00;99.90;;;;;;5013566;28;20041;-83
2022/11/13 10:40:09;;;;;;;1999.90;999.90;;;16.10;99.90;;;;;;4995675;28;20656;-83
2022/11/13 10:42:40;;;;;;;1999.90;999.90;;;16.20;99.90;;;;;;5013618;28;20026;-83
2022/11/13 10:45:20;;;;;;;1999.90;999.90;;;16.30;99.90;;;;;;5013162;28;20036;-83
2022/11/13 10:47:48;;;;;;;1999.90;999.90;;;16.40;99.90;;;;;;5013279;28;20022;-83
2022/11/13 10:50:29;;;;;;;1999.90;999.90;;;16.50;99.90;;;;;;5012962;28;20042;-83
2022/11/13 10:52:56;;;;;;;1999.90;999.90;;;16.70;99.90;;;;;;5013024;28;20025;-83
2022/11/13 10:55:38;;;;;;;1999.90;999.90;;;16.80;99.90;;;;;;5012744;28;20394;-84
2022/11/13 10:58:15;;;;;;;1999.90;999.90;;;16.90;99.90;;;;;;5013381;28;20034;-83
2022/11/13 11:00:43;;;;;;;1999.90;999.90;;;16.90;99.90;;;;;;5013134;28;20200;-83
2022/11/13 11:03:23;;;;;;;1999.90;999.90;;;17.00;99.90;;;;;;5013436;28;20100;-83
2022/11/13 11:05:56;;;;;;;1999.90;999.90;;;17.10;99.90;;;;;;5013603;28;20028;-83
2022/11/13 11:08:23;;;;;;;;;;;17.10;99.90;;;;;;4995306;28;20397;-83
2022/11/13 11:13:43;;;;;;;1999.90;999.90;;;17.30;99.90;;;;;;5012814;28;20033;-83
2022/11/13 11:16:16;;;;;;;1999.90;999.90;;;17.40;99.90;;;;;;5011665;28;20052;-83
2022/11/13 11:19:00;;;;;;;1999.90;999.90;;;17.50;99.90;;;;;;5012765;28;20484;-83
2022/11/13 11:21:30;;;;;;;1999.90;999.90;;;17.60;99.90;;;;;;5012537;28;20440;-83
2022/11/13 11:24:12;;;;;;;1999.90;999.90;;;17.70;99.90;;;;;;5012388;28;20481;-83
2022/11/13 11:26:46;;;;;;;1999.90;999.90;;;17.70;99.90;;;;;;5012361;28;20489;-83
2022/11/13 11:29:36;;;;;;;1999.90;999.90;;;17.80;99.90;;;;;;5012686;28;20030;-83
2022/11/13 11:32:37;;;;;;;1999.90;999.90;;;17.90;99.90;;;;;;5012245;28;20367;-83
2022/11/13 11:35:17;;;;;;;1999.90;999.90;;;18.10;99.90;;;;;;4981168;28;20037;-83
2022/11/13 11:38:08;;;;;;;1999.90;999.90;;;18.30;99.90;;;;;;5012485;28;20137;-83
2022/11/13 11:40:48;;;;;;;1999.90;999.90;;;18.40;99.90;;;;;;5003783;28;20435;-83
2022/11/13 11:43:18;;;;;;;1999.90;999.90;;;18.50;99.90;;;;;;5012903;28;20040;-83
2022/11/13 11:45:45;;;;;;;1999.90;999.90;;;18.50;99.90;;;;;;5011696;28;20029;-84
2022/11/13 11:48:26;;;;;;;1999.90;999.90;;;18.60;99.90;;;;;;5012287;28;20057;-84
2022/11/13 11:51:13;;;;;;;1999.90;999.90;;;18.60;99.90;;;;;;5012339;28;20397;-83
2022/11/13 11:53:45;;;;;;;1999.90;999.90;;;18.60;99.90;;;;;;5012275;28;20493;-83
2022/11/13 11:56:30;;;;;;;1999.90;999.90;;;18.80;99.90;;;;;;5011552;28;20037;-84
2022/11/13 11:59:11;;;;;;;1999.90;999.90;;;18.90;99.90;;;;;;5012283;28;20022;-84
2022/11/13 12:01:56;;;;;;;1999.90;999.90;;;19.10;99.90;;;;;;5023449;28;20029;-83
2022/11/13 12:04:31;;;;;;;1999.90;999.90;;;19.20;99.90;;;;;;5032164;28;20029;-84
2022/11/13 12:07:10;;;;;;;1999.90;999.90;;;19.30;99.90;;;;;;5031785;28;20033;-83
2022/11/13 12:09:46;;;;;;;1999.90;999.90;;;19.40;99.90;;;;;;5032216;28;20098;-84
2022/11/13 12:12:37;;;;;;;1999.90;999.90;;;19.40;99.90;;;;;;5014078;28;20033;-83
2022/11/13 12:15:13;;;;;;;1999.90;999.90;;;19.40;99.90;;;;;;5014247;28;20255;-84